PSCTRI-CITIES
METARs for airports near PSC, sorted by distance:
N 0 nm 410' KPSC 161053Z 35003KT 10SM CLR 04/03 A3011
W 8 nm 394' KRLD 161135Z 00000KT 10SM CLR 05/04 A3011
S 26 nm 644' KHRI 161053Z 16005KT 10SM CLR 06/03 A3012
S 36 nm 1496' KPDT 161053Z 00000KT 10SM CLR 05/01 A3012
E 36 nm 1194' KALW 161053Z 10007KT 10SM CLR 09/01 A3011
N 57 nm 1188' KMWH 161052Z 00000KT 10SM CLR 04/03 A3011
W 61 nm 1098' KYKM 161053Z 27006KT 10SM CLR 01/01 A3011
N 64 nm 1276' KEPH 161053Z 35004KT 10SM CLR 06/03 A3010
NW 74 nm 1763' KELN 161053Z 06003KT 10SM CLR 02/M01 A3011
SE 74 nm 2717' KLGD 161056Z 19018G27KT 10SM CLR 13/M03 A3019
NW 81 nm 1248' KEAT 161055Z 29006KT 10SM CLR 08/03 A3010
E 87 nm 1442' KLWS 161056Z 00000KT 10SM CLR 09/01 A3015
E 87 nm 2566' KPUW 161053Z 06003KT 10SM CLR 07/01 A3017
SW 93 nm 246' KDLS 161053Z 00000KT 10SM CLR 08/06 A3014
SE 95 nm 4126' KJSY 161135Z 00000KT 10SM CLR 03/M02 A3021
TAFs for airports near PSC, sorted by distance:
N 0 nm 410' KPSC TAF KPSC 161120Z 1612/1712 VRB06KT P6SM BKN200
S 36 nm 1496' KPDT TAF KPDT 161120Z 1612/1712 13006KT P6SM SCT200
  FM161800 31006KT P6SM SKC
  FM170500 15006KT P6SM SKC
E 36 nm 1194' KALW TAF KALW 161120Z 1612/1712 11007KT P6SM BKN200
  FM161800 24005KT P6SM SCT200
  FM170000 13005KT P6SM SKC
N 57 nm 1188' KMWH TAF KMWH 161126Z 1612/1712 01004KT P6SM SCT100 SCT250
  FM161800 17006KT P6SM FEW150 SCT250
  FM170400 02003KT P6SM FEW150 SCT250
  FM171000 01005KT P6SM SCT120 BKN200
W 61 nm 1098' KYKM TAF KYKM 161120Z 1612/1712 29006KT P6SM BKN180
  FM161900 VRB03KT P6SM BKN200
  FM170400 28006KT P6SM BKN180
NW 81 nm 1248' KEAT TAF KEAT 161126Z 1612/1712 28004KT P6SM SCT100 SCT200
  FM162000 12004KT P6SM FEW150 SCT250
  FM170300 VRB02KT P6SM SCT120 SCT250
  FM171000 30006KT P6SM SCT120 BKN180
E 87 nm 1442' KLWS TAF KLWS 161126Z 1612/1712 10006KT P6SM FEW100
  FM161600 10006KT P6SM FEW250
E 87 nm 2566' KPUW TAF KPUW 161126Z 1612/1712 10006KT P6SM FEW100
  FM161800 12011KT P6SM FEW250
SW 93 nm 246' KDLS TAF KDLS 161120Z 1612/1712 12005KT P6SM FEW010 SCT200
  FM161300 12005KT P6SM SCT008
  FM161800 33005KT P6SM SCT200
  FM170900 VRB04KT P6SM BKN200

Shortcut to this page: http://wxbay.com.

Data may contain errors.